Terminal Aerodrome Forecast
Issued by NWS Medford, OR

Home | Current Version | Previous Version | Text Only | Print | Product List | Glossary On
Versions: 1 2 3 4 5 6 7 8 9 10 11 12 13 14 15 16 17 18 19 20
000
FTUS46 KMFR 191407 AAB
TAFMFR
TAF AMD
KMFR 191407Z 1914/2012 VRB03KT 6SM -SHRA SCT011 OVC040
     FM191600 VRB03KT 2SM BR BKN010
     FM191900 32004KT P6SM VCSH SCT015 BKN040=

USA.gov is the U.S. government's official web portal to all federal, state and local government web resources and services.